Time;durP1;ratioP1;P1;durP2;ratioP2;P2;SDS_P1;SDS_P2;PMS_P1;PMS_P2;Temp;Humidity;BMP_temperature;BMP_pressure;BME280_temperature;BME280_humidity;BME280_pressure;Samples;Min_cycle;Max_cycle;Signal;HPM_P1;HPM_P2
2023/04/22 00:01:38;;;;;;;50.07;30.47;;;9.40;99.90;;;;;;7289309;19;20192;-78
2023/04/22 00:04:04;;;;;;;49.30;30.57;;;9.40;99.90;;;;;;7294341;19;20190;-78
2023/04/22 00:06:30;;;;;;;50.00;31.33;;;9.50;99.90;;;;;;7310890;19;20201;-79
2023/04/22 00:08:56;;;;;;;46.97;29.37;;;9.50;99.90;;;;;;7288505;19;20198;-78
2023/04/22 00:11:22;;;;;;;45.17;28.87;;;9.50;99.90;;;;;;7289686;19;20193;-79
2023/04/22 00:13:48;;;;;;;45.53;28.53;;;9.50;99.90;;;;;;7287810;19;20189;-78
2023/04/22 00:16:14;;;;;;;44.43;27.50;;;9.50;99.90;;;;;;7288327;19;20256;-78
2023/04/22 00:18:40;;;;;;;43.20;28.57;;;9.50;99.90;;;;;;7288389;19;20615;-78
2023/04/22 00:21:06;;;;;;;43.93;28.67;;;9.50;99.90;;;;;;7288964;19;20181;-78
2023/04/22 00:23:32;;;;;;;48.33;28.53;;;9.50;99.90;;;;;;7311805;19;20202;-78
2023/04/22 00:26:00;;;;;;;40.27;25.27;;;9.50;99.90;;;;;;7290368;19;20186;-78
2023/04/22 00:28:25;;;;;;;39.00;25.30;;;9.50;99.90;;;;;;7289561;19;20190;-78
2023/04/22 00:30:51;;;;;;;38.50;25.47;;;9.30;99.90;;;;;;7288394;19;20186;-78
2023/04/22 00:33:17;;;;;;;43.87;27.67;;;9.30;99.90;;;;;;7285082;19;20185;-78
2023/04/22 00:35:45;;;;;;;43.83;27.20;;;9.30;99.90;;;;;;7287555;19;20180;-77
2023/04/22 00:38:10;;;;;;;47.57;29.60;;;9.20;99.90;;;;;;7288224;19;20198;-78
2023/04/22 00:40:36;;;;;;;51.77;31.73;;;9.20;99.90;;;;;;7286941;19;20713;-77
2023/04/22 00:43:02;;;;;;;55.17;32.80;;;9.20;99.90;;;;;;7310778;19;20188;-78
2023/04/22 00:45:29;;;;;;;53.83;31.70;;;9.20;99.90;;;;;;7289089;19;20221;-77
2023/04/22 00:47:55;;;;;;;52.63;32.60;;;9.10;99.90;;;;;;7289134;19;20185;-78
2023/04/22 00:50:21;;;;;;;53.13;31.73;;;9.00;99.90;;;;;;7287941;19;20189;-77
2023/04/22 00:52:48;;;;;;;52.90;32.40;;;9.00;99.90;;;;;;7287951;19;20194;-77
2023/04/22 00:55:14;;;;;;;56.10;33.13;;;8.90;99.90;;;;;;7287434;19;20177;-77
2023/04/22 00:57:40;;;;;;;49.40;31.77;;;8.90;99.90;;;;;;7287882;19;20550;-78
2023/04/22 01:00:08;;;;;;;55.43;32.27;;;8.90;99.90;;;;;;7289052;19;20212;-77
2023/04/22 01:02:37;;;;;;;48.63;30.57;;;9.00;99.90;;;;;;7296069;19;20207;-77
2023/04/22 01:05:03;;;;;;;50.33;31.13;;;9.00;99.90;;;;;;7310696;19;20225;-78
2023/04/22 01:07:29;;;;;;;47.57;28.83;;;8.90;99.90;;;;;;7288360;19;20188;-78
2023/04/22 01:09:55;;;;;;;45.90;29.17;;;8.80;99.90;;;;;;7287188;19;20205;-78
2023/04/22 01:12:21;;;;;;;44.13;27.70;;;8.90;99.90;;;;;;7287779;19;20185;-77
2023/04/22 01:14:47;;;;;;;47.60;29.07;;;8.90;99.90;;;;;;7287215;19;20689;-78
2023/04/22 01:17:15;;;;;;;47.87;29.50;;;8.90;99.90;;;;;;7287639;19;20189;-78
2023/04/22 01:19:42;;;;;;;49.03;28.30;;;8.90;99.90;;;;;;7288586;19;20189;-77
2023/04/22 01:22:10;;;;;;;46.90;29.57;;;8.90;99.90;;;;;;7288352;19;20208;-77
2023/04/22 01:24:36;;;;;;;49.83;30.40;;;8.80;99.90;;;;;;7287717;19;20202;-77
2023/04/22 01:27:02;;;;;;;46.90;28.47;;;8.80;99.90;;;;;;7309679;19;20636;-77
2023/04/22 01:29:28;;;;;;;49.90;30.50;;;8.80;99.90;;;;;;7287893;19;20200;-77
2023/04/22 01:31:54;;;;;;;49.77;30.20;;;8.90;99.90;;;;;;7287357;19;20569;-77
2023/04/22 01:34:21;;;;;;;48.93;30.20;;;8.90;99.90;;;;;;7286373;19;20188;-77
2023/04/22 01:36:48;;;;;;;48.63;29.87;;;8.90;99.90;;;;;;7286993;19;20196;-77
2023/04/22 01:39:13;;;;;;;47.77;28.27;;;8.80;99.90;;;;;;7286724;19;20209;-77
2023/04/22 01:41:40;;;;;;;51.73;30.03;;;8.80;99.90;;;;;;7286454;19;20526;-77
2023/04/22 01:44:06;;;;;;;46.23;28.33;;;8.80;99.90;;;;;;7287310;19;20311;-77
2023/04/22 01:46:33;;;;;;;48.77;28.27;;;8.80;99.90;;;;;;7307981;19;20248;-78
2023/04/22 01:48:59;;;;;;;49.23;29.17;;;8.70;99.90;;;;;;7286725;19;20189;-77
2023/04/22 01:51:24;;;;;;;50.73;29.13;;;8.70;99.90;;;;;;7284917;19;20197;-78
2023/04/22 01:53:50;;;;;;;50.00;30.23;;;8.70;99.90;;;;;;7286357;19;20213;-77
2023/04/22 01:56:17;;;;;;;49.60;30.20;;;8.70;99.90;;;;;;7286571;19;20221;-77
2023/04/22 01:58:43;;;;;;;47.13;28.53;;;8.60;99.90;;;;;;7285751;19;20189;-78
2023/04/22 02:01:10;;;;;;;50.97;30.33;;;8.60;99.90;;;;;;7285043;19;20651;-77
2023/04/22 02:03:36;;;;;;;53.20;30.57;;;8.70;99.90;;;;;;7286055;19;20199;-77
2023/04/22 02:06:02;;;;;;;52.70;30.17;;;8.70;99.90;;;;;;7306937;19;20182;-77
2023/04/22 02:08:29;;;;;;;49.33;29.47;;;8.50;99.90;;;;;;7286405;19;20313;-77
2023/04/22 02:10:55;;;;;;;47.53;30.37;;;8.40;99.90;;;;;;7285840;19;20265;-77
2023/04/22 02:13:21;;;;;;;51.63;31.00;;;8.30;99.90;;;;;;7286080;19;20189;-77
2023/04/22 02:15:47;;;;;;;48.87;30.70;;;8.40;99.90;;;;;;7284734;19;20251;-77
2023/04/22 02:18:16;;;;;;;49.73;31.13;;;8.30;99.90;;;;;;7285005;19;20193;-77
2023/04/22 02:20:43;;;;;;;49.00;29.83;;;8.40;99.90;;;;;;7284364;19;20185;-77
2023/04/22 02:23:09;;;;;;;49.13;29.80;;;8.40;99.90;;;;;;7285882;19;20248;-77
2023/04/22 02:25:35;;;;;;;49.17;29.67;;;8.60;99.90;;;;;;7302139;19;20185;-77
2023/04/22 02:28:01;;;;;;;51.83;31.07;;;8.70;99.90;;;;;;7306732;19;20264;-77
2023/04/22 02:30:27;;;;;;;48.07;29.87;;;8.70;99.90;;;;;;7284781;19;20222;-77
2023/04/22 02:32:53;;;;;;;48.47;29.57;;;8.40;99.90;;;;;;7286189;19;20589;-77
2023/04/22 02:35:18;;;;;;;47.90;28.97;;;8.30;99.90;;;;;;7284108;19;20598;-78
2023/04/22 02:37:44;;;;;;;50.07;29.73;;;8.20;99.90;;;;;;7284675;19;20188;-77
2023/04/22 02:40:10;;;;;;;49.10;29.50;;;8.20;99.90;;;;;;7282723;19;20192;-77
2023/04/22 02:42:36;;;;;;;49.57;28.73;;;8.30;99.90;;;;;;7283586;19;20195;-77
2023/04/22 02:45:02;;;;;;;47.97;29.90;;;8.40;99.90;;;;;;7306952;19;20530;-78
2023/04/22 02:47:28;;;;;;;49.23;29.73;;;8.50;99.90;;;;;;7284169;19;20180;-77
2023/04/22 02:49:53;;;;;;;47.93;29.33;;;8.30;99.90;;;;;;7284193;19;20199;-77
2023/04/22 02:52:19;;;;;;;49.57;30.40;;;8.00;99.90;;;;;;7285172;19;20191;-77
2023/04/22 02:54:45;;;;;;;51.10;30.03;;;7.90;99.90;;;;;;7283544;19;20276;-77
2023/04/22 02:57:11;;;;;;;48.67;29.53;;;7.90;99.90;;;;;;7284233;19;20208;-77
2023/04/22 02:59:37;;;;;;;46.43;28.47;;;7.90;99.90;;;;;;7284010;19;20220;-77
2023/04/22 03:02:03;;;;;;;50.73;30.23;;;7.90;99.90;;;;;;7306641;19;20595;-77
2023/04/22 03:04:42;;;;;;;49.97;30.07;;;7.90;99.90;;;;;;7182777;19;2004448;-77
2023/04/22 03:07:08;;;;;;;46.43;29.03;;;7.90;99.90;;;;;;7283844;19;20196;-77
2023/04/22 03:09:34;;;;;;;48.27;29.87;;;7.90;99.90;;;;;;7305424;19;20204;-78
2023/04/22 03:12:01;;;;;;;47.87;29.20;;;8.10;99.90;;;;;;7283377;19;20186;-77
2023/04/22 03:14:27;;;;;;;45.17;28.70;;;8.20;99.90;;;;;;7281032;19;20187;-77
2023/04/22 03:16:52;;;;;;;47.50;29.57;;;8.40;99.90;;;;;;7282570;19;20200;-77
2023/04/22 03:19:19;;;;;;;44.57;26.47;;;8.50;99.90;;;;;;7281476;19;20199;-77
2023/04/22 03:21:44;;;;;;;43.93;27.87;;;8.50;99.90;;;;;;7281642;19;20519;-77
2023/04/22 03:24:10;;;;;;;46.07;28.00;;;8.50;99.90;;;;;;7281883;19;20184;-77
2023/04/22 03:26:42;;;;;;;46.93;28.57;;;8.60;99.90;;;;;;7282750;19;20211;-77
2023/04/22 03:29:07;;;;;;;50.00;28.90;;;8.70;99.90;;;;;;7282285;19;20305;-77
2023/04/22 03:31:33;;;;;;;44.03;26.93;;;8.70;99.90;;;;;;7306109;19;20199;-77
2023/04/22 03:33:59;;;;;;;48.63;30.00;;;8.80;99.90;;;;;;7281973;19;20200;-77
2023/04/22 03:36:28;;;;;;;48.77;29.77;;;8.90;99.90;;;;;;7282844;19;20193;-77
2023/04/22 03:38:54;;;;;;;46.40;28.07;;;8.90;99.90;;;;;;7282969;19;20291;-77
2023/04/22 03:41:25;;;;;;;46.13;27.90;;;8.80;99.90;;;;;;7281180;19;20204;-77
2023/04/22 03:43:51;;;;;;;47.30;27.93;;;8.70;99.90;;;;;;7283227;19;20667;-77
2023/04/22 03:46:17;;;;;;;47.13;28.90;;;8.50;99.90;;;;;;7283497;19;20188;-77
2023/04/22 03:48:51;;;;;;;45.57;28.23;;;8.20;99.90;;;;;;7281918;19;20548;-77
2023/04/22 03:51:25;;;;;;;49.40;30.37;;;8.20;99.90;;;;;;7282184;19;20687;-77
2023/04/22 03:53:52;;;;;;;47.30;29.23;;;8.20;99.90;;;;;;7280400;19;20199;-79
2023/04/22 03:56:20;;;;;;;53.27;30.27;;;8.20;99.90;;;;;;7281934;19;20197;-78
2023/04/22 03:58:48;;;;;;;55.70;31.90;;;8.30;99.90;;;;;;7283442;19;20191;-79
2023/04/22 04:01:15;;;;;;;48.17;29.27;;;8.20;99.90;;;;;;7282323;19;20194;-78
2023/04/22 04:03:44;;;;;;;48.37;29.30;;;8.00;99.90;;;;;;7282620;19;20229;-79
2023/04/22 04:06:11;;;;;;;50.43;29.70;;;7.80;99.90;;;;;;7282213;19;20577;-78
2023/04/22 04:08:37;;;;;;;48.37;29.47;;;7.70;99.90;;;;;;7280233;19;20195;-78
2023/04/22 04:11:03;;;;;;;49.40;29.77;;;7.60;99.90;;;;;;7304518;19;20188;-79
2023/04/22 04:13:31;;;;;;;49.17;30.80;;;7.60;99.90;;;;;;7282258;19;20188;-79
2023/04/22 04:16:17;;;;;;;51.37;30.60;;;7.50;99.90;;;;;;7178208;19;2004356;-79
2023/04/22 04:18:49;;;;;;;53.37;32.23;;;7.70;99.90;;;;;;7282047;19;20248;-79
2023/04/22 04:21:16;;;;;;;50.57;31.53;;;7.70;99.90;;;;;;7281071;19;20206;-79
2023/04/22 04:23:47;;;;;;;50.43;30.70;;;7.70;99.90;;;;;;7282053;19;20188;-79
2023/04/22 04:26:13;;;;;;;50.80;30.97;;;7.70;99.90;;;;;;7288937;19;20199;-79
2023/04/22 04:28:44;;;;;;;50.63;31.27;;;7.70;99.90;;;;;;7288071;19;20199;-79
2023/04/22 04:31:11;;;;;;;53.13;30.73;;;7.80;99.90;;;;;;7288589;19;20302;-79
2023/04/22 04:33:36;;;;;;;55.53;32.57;;;7.80;99.90;;;;;;7291085;19;20207;-79
2023/04/22 04:36:03;;;;;;;51.60;31.87;;;7.90;99.90;;;;;;7310470;19;20196;-77
2023/04/22 04:38:33;;;;;;;53.40;31.23;;;7.90;99.90;;;;;;7288802;19;20210;-77
2023/04/22 04:41:00;;;;;;;52.93;32.17;;;8.00;99.90;;;;;;7286798;19;20223;-77
2023/04/22 04:43:28;;;;;;;55.13;31.20;;;8.10;99.90;;;;;;7287387;19;20188;-77
2023/04/22 04:46:15;;;;;;;53.77;32.50;;;8.20;99.90;;;;;;7184481;19;2004940;-77
2023/04/22 04:48:41;;;;;;;55.40;31.50;;;8.30;99.90;;;;;;7287494;19;20199;-77
2023/04/22 04:51:08;;;;;;;53.00;32.10;;;8.40;99.90;;;;;;7287763;19;20558;-77
2023/04/22 04:53:40;;;;;;;57.20;33.03;;;8.50;99.90;;;;;;7288506;19;20197;-77
2023/04/22 04:56:05;;;;;;;55.83;33.53;;;8.60;99.90;;;;;;7299333;19;20192;-77
2023/04/22 04:58:31;;;;;;;54.93;33.30;;;8.60;99.90;;;;;;7305584;19;20196;-77
2023/04/22 05:01:08;;;;;;;57.17;34.20;;;8.70;99.90;;;;;;7266293;19;20200;-77
2023/04/22 05:03:34;;;;;;;56.27;32.83;;;8.80;99.90;;;;;;7310097;19;20188;-77
2023/04/22 05:06:01;;;;;;;65.43;33.00;;;8.90;99.90;;;;;;7288855;19;20188;-77
2023/04/22 05:08:27;;;;;;;55.90;33.17;;;8.80;99.90;;;;;;7286339;19;20263;-77
2023/04/22 05:11:00;;;;;;;59.07;33.87;;;8.70;99.90;;;;;;7288021;19;20205;-77
2023/04/22 05:13:26;;;;;;;57.47;34.10;;;8.50;99.90;;;;;;7288361;19;20181;-77
2023/04/22 05:15:53;;;;;;;57.97;34.83;;;8.50;99.90;;;;;;7286162;19;20255;-77
2023/04/22 05:18:20;;;;;;;57.33;33.90;;;8.50;99.90;;;;;;7287368;19;20210;-78
2023/04/22 05:20:46;;;;;;;57.60;35.03;;;8.50;99.90;;;;;;7287015;19;20188;-78
2023/04/22 05:23:12;;;;;;;59.20;34.83;;;8.50;99.90;;;;;;7287045;19;20261;-77
2023/04/22 05:25:38;;;;;;;56.80;35.10;;;8.40;99.90;;;;;;7288116;19;20204;-77
2023/04/22 05:28:08;;;;;;;57.27;35.27;;;8.50;99.90;;;;;;7287649;19;20215;-77
2023/04/22 05:30:42;;;;;;;56.90;33.47;;;8.40;99.90;;;;;;7286528;19;20240;-78
2023/04/22 05:33:09;;;;;;;59.03;34.47;;;8.40;99.90;;;;;;7287720;19;20191;-77
2023/04/22 05:35:35;;;;;;;63.03;35.70;;;8.50;99.90;;;;;;7305336;19;20202;-77
2023/04/22 05:38:01;;;;;;;59.90;36.30;;;8.40;99.90;;;;;;7300017;19;20191;-78
2023/04/22 05:40:28;;;;;;;56.37;34.97;;;8.40;99.90;;;;;;7286956;19;20179;-79
2023/04/22 05:42:55;;;;;;;62.90;37.77;;;8.50;99.90;;;;;;7287165;19;20201;-78
2023/04/22 05:45:21;;;;;;;61.30;36.87;;;8.70;99.90;;;;;;7287240;19;20185;-78
2023/04/22 05:47:47;;;;;;;56.83;35.77;;;9.00;99.90;;;;;;7286063;19;20213;-78
2023/04/22 05:50:13;;;;;;;61.30;36.90;;;9.30;99.90;;;;;;7286165;19;20189;-78
2023/04/22 05:52:49;;;;;;;57.53;35.63;;;9.60;99.90;;;;;;7286661;19;20212;-78
2023/04/22 05:55:16;;;;;;;56.23;34.47;;;10.00;99.90;;;;;;7286948;19;20252;-78
2023/04/22 05:57:43;;;;;;;52.37;33.53;;;10.30;99.90;;;;;;7286887;19;20185;-78
2023/04/22 06:00:41;;;;;;;50.13;32.93;;;10.70;99.90;;;;;;7183512;19;2004695;-78
2023/04/22 06:03:30;;;;;;;53.47;33.40;;;11.10;99.90;;;;;;7288699;19;20191;-77
2023/04/22 06:05:57;;;;;;;48.10;31.53;;;11.80;99.90;;;;;;7287128;19;20190;-78
2023/04/22 06:08:23;;;;;;;44.23;30.30;;;12.70;99.90;;;;;;7287252;19;20580;-78
2023/04/22 06:10:49;;;;;;;44.80;28.97;;;12.80;99.90;;;;;;7286636;19;20194;-78
2023/04/22 06:13:16;;;;;;;45.17;29.13;;;12.60;99.90;;;;;;7291224;19;20674;-78
2023/04/22 06:15:42;;;;;;;43.10;30.03;;;12.50;99.90;;;;;;7287353;19;20187;-78
2023/04/22 06:18:08;;;;;;;50.20;30.10;;;12.50;99.90;;;;;;7285975;19;20701;-78
2023/04/22 06:20:35;;;;;;;44.40;30.23;;;12.50;99.90;;;;;;7307261;19;20192;-78
2023/04/22 06:23:04;;;;;;;44.80;29.33;;;12.90;99.90;;;;;;7286920;19;20184;-78
2023/04/22 06:25:30;;;;;;;38.83;27.43;;;13.00;99.90;;;;;;7286338;19;20185;-78
2023/04/22 06:27:58;;;;;;;42.77;29.10;;;13.00;99.90;;;;;;7286261;19;20184;-80
2023/04/22 06:30:24;;;;;;;46.40;30.97;;;12.90;99.90;;;;;;7285066;19;20561;-78
2023/04/22 06:32:54;;;;;;;45.17;30.00;;;12.70;99.90;;;;;;7287139;19;20765;-78
2023/04/22 06:35:20;;;;;;;51.00;31.20;;;12.70;99.90;;;;;;7284818;19;20245;-79
2023/04/22 06:37:47;;;;;;;46.53;31.17;;;12.70;99.90;;;;;;7285742;19;20241;-78
2023/04/22 06:40:14;;;;;;;44.03;29.97;;;12.80;99.90;;;;;;7285130;19;20188;-77
2023/04/22 06:43:00;;;;;;;44.13;30.50;;;12.90;99.90;;;;;;7286008;19;20509;-78
2023/04/22 06:46:04;;;;;;;42.37;30.00;;;12.90;99.90;;;;;;7184686;19;2004653;-78
2023/04/22 06:48:50;;;;;;;43.37;30.03;;;12.60;99.90;;;;;;7182131;19;2004880;-78
2023/04/22 06:51:26;;;;;;;43.80;30.37;;;12.50;99.90;;;;;;7284737;19;20678;-78
2023/04/22 06:53:52;;;;;;;43.87;30.43;;;12.60;99.90;;;;;;7284453;19;20190;-78
2023/04/22 06:56:18;;;;;;;44.37;30.20;;;12.80;99.90;;;;;;7284772;19;20193;-78
2023/04/22 06:58:43;;;;;;;42.50;28.83;;;13.10;99.90;;;;;;7284914;19;20201;-77
2023/04/22 07:01:09;;;;;;;41.83;28.47;;;13.50;99.90;;;;;;7284461;19;20200;-77
2023/04/22 07:03:37;;;;;;;39.83;28.13;;;13.70;99.90;;;;;;7289139;19;20585;-77
2023/04/22 07:06:08;;;;;;;40.27;28.13;;;13.70;99.90;;;;;;7283984;19;20192;-77
2023/04/22 07:08:34;;;;;;;43.50;29.13;;;14.00;99.90;;;;;;7306630;19;20202;-78
2023/04/22 07:10:59;;;;;;;44.20;29.57;;;14.10;99.90;;;;;;7284875;19;20899;-78
2023/04/22 07:13:48;;;;;;;42.43;29.73;;;14.00;99.90;;;;;;7179844;19;2004515;-78
2023/04/22 07:16:14;;;;;;;45.03;31.00;;;14.00;99.90;;;;;;7284334;19;20194;-77
2023/04/22 07:18:40;;;;;;;46.13;30.17;;;13.70;99.90;;;;;;7285418;19;20193;-77
2023/04/22 07:21:06;;;;;;;45.73;32.40;;;13.60;99.90;;;;;;7302449;19;20182;-77
2023/04/22 07:23:31;;;;;;;48.93;32.57;;;13.50;99.90;;;;;;7297580;19;20195;-77
2023/04/22 07:25:57;;;;;;;50.90;33.73;;;13.30;99.90;;;;;;7287117;19;20203;-80
2023/04/22 07:28:23;;;;;;;51.00;31.73;;;13.10;99.90;;;;;;7284830;19;20190;-78
2023/04/22 07:30:49;;;;;;;45.17;30.40;;;12.90;99.90;;;;;;7285668;19;20193;-79
2023/04/22 07:33:15;;;;;;;47.07;31.87;;;13.10;99.90;;;;;;7285059;19;20661;-78
2023/04/22 07:35:40;;;;;;;47.67;30.03;;;13.40;99.90;;;;;;7285108;19;20290;-77
2023/04/22 07:38:06;;;;;;;42.63;28.97;;;13.80;99.90;;;;;;7298197;19;20244;-77
2023/04/22 07:40:32;;;;;;;43.87;29.17;;;14.50;99.90;;;;;;7302763;19;20193;-77
2023/04/22 07:42:58;;;;;;;39.30;27.10;;;14.80;99.90;;;;;;7283763;19;20189;-76
2023/04/22 07:45:24;;;;;;;34.20;23.77;;;15.00;99.90;;;;;;7284947;19;20557;-77
2023/04/22 07:47:50;;;;;;;34.30;23.47;;;15.20;99.90;;;;;;7284802;19;20220;-78
2023/04/22 07:50:16;;;;;;;33.10;23.07;;;15.50;99.90;;;;;;7284818;19;20193;-78
2023/04/22 07:52:42;;;;;;;32.10;21.33;;;15.80;99.90;;;;;;7284783;19;20605;-78
2023/04/22 07:55:08;;;;;;;28.40;19.90;;;15.90;99.90;;;;;;7284774;19;20189;-79
2023/04/22 07:57:37;;;;;;;25.87;18.63;;;15.90;99.90;;;;;;7305065;19;20293;-78
2023/04/22 08:00:05;;;;;;;26.50;17.57;;;15.80;99.90;;;;;;7288110;19;20184;-78
2023/04/22 08:02:37;;;;;;;26.00;17.60;;;16.20;99.90;;;;;;7270035;19;20280;-78
2023/04/22 08:05:03;;;;;;;24.93;17.47;;;16.50;99.90;;;;;;7314251;19;20198;-79
2023/04/22 08:07:29;;;;;;;24.67;16.17;;;16.90;99.90;;;;;;7287689;19;20188;-78
2023/04/22 08:09:55;;;;;;;25.57;16.30;;;16.70;99.90;;;;;;7289741;19;20716;-78
2023/04/22 08:12:21;;;;;;;22.50;14.83;;;17.30;99.90;;;;;;7290521;19;20650;-78
2023/04/22 08:14:47;;;;;;;21.47;14.50;;;17.40;99.90;;;;;;7290543;19;20185;-78
2023/04/22 08:17:13;;;;;;;23.63;14.70;;;17.50;99.90;;;;;;7289961;19;20181;-78
2023/04/22 08:19:38;;;;;;;19.10;13.40;;;17.40;99.90;;;;;;7290031;19;20553;-77
2023/04/22 08:22:04;;;;;;;22.03;14.03;;;17.10;99.90;;;;;;7311766;19;20209;-78
2023/04/22 08:24:30;;;;;;;19.40;13.97;;;17.30;99.90;;;;;;7289449;19;20196;-78
2023/04/22 08:26:56;;;;;;;20.90;14.17;;;18.00;99.90;;;;;;7289458;19;20616;-78
2023/04/22 08:29:22;;;;;;;20.63;13.77;;;18.60;99.90;;;;;;7288418;19;20189;-79
2023/04/22 08:31:48;;;;;;;20.70;13.73;;;18.80;99.90;;;;;;7289446;19;20205;-78
2023/04/22 08:34:13;;;;;;;22.03;14.13;;;19.40;99.90;;;;;;7291094;19;20184;-79
2023/04/22 08:36:39;;;;;;;18.63;13.40;;;20.20;99.90;;;;;;7288307;19;20183;-79
2023/04/22 08:39:05;;;;;;;22.53;14.37;;;20.10;99.90;;;;;;7313036;19;20202;-79
2023/04/22 08:41:34;;;;;;;19.03;13.77;;;19.80;99.90;;;;;;7290279;19;20192;-80
2023/04/22 08:44:00;;;;;;;18.80;13.30;;;19.80;99.90;;;;;;7290053;19;20701;-79
2023/04/22 08:46:27;;;;;;;18.20;13.00;;;19.90;99.90;;;;;;7289922;19;20197;-79
2023/04/22 08:48:54;;;;;;;19.97;13.40;;;19.70;99.90;;;;;;7290082;19;20268;-79
2023/04/22 08:51:20;;;;;;;17.10;12.20;;;19.30;99.90;;;;;;7288427;19;20212;-79
2023/04/22 08:53:46;;;;;;;17.60;12.13;;;19.10;99.90;;;;;;7289395;19;20660;-78
2023/04/22 08:56:12;;;;;;;18.73;12.30;;;18.70;99.90;;;;;;7288629;19;20200;-78
2023/04/22 08:58:42;;;;;;;18.60;12.67;;;18.50;99.90;;;;;;7288144;19;20184;-78
2023/04/22 09:01:08;;;;;;;18.00;12.27;;;18.00;99.90;;;;;;7289761;19;20189;-78
2023/04/22 09:03:36;;;;;;;16.67;12.07;;;17.80;99.90;;;;;;7305706;19;20193;-78
2023/04/22 09:06:05;;;;;;;17.13;11.67;;;17.50;99.90;;;;;;7288337;19;20185;-78
2023/04/22 09:08:31;;;;;;;17.07;11.00;;;17.30;99.90;;;;;;7288779;19;20190;-79
2023/04/22 09:11:02;;;;;;;17.33;12.10;;;17.10;99.90;;;;;;7285665;19;20218;-78
2023/04/22 09:13:28;;;;;;;17.63;11.67;;;16.30;99.90;;;;;;7287744;19;20201;-78
2023/04/22 09:15:54;;;;;;;17.80;12.77;;;15.90;99.90;;;;;;7288850;19;20209;-78
2023/04/22 09:18:20;;;;;;;18.40;12.50;;;16.00;99.90;;;;;;7288958;19;20196;-78
2023/04/22 09:20:47;;;;;;;17.90;12.33;;;16.10;99.90;;;;;;7288036;19;20181;-78
2023/04/22 09:23:13;;;;;;;21.47;13.13;;;15.90;99.90;;;;;;7288510;19;20177;-78
2023/04/22 09:25:40;;;;;;;20.10;13.17;;;16.00;99.90;;;;;;7288963;19;20192;-78
2023/04/22 09:28:10;;;;;;;18.97;12.27;;;16.10;99.90;;;;;;7310976;19;20555;-79
2023/04/22 09:30:36;;;;;;;21.03;13.87;;;16.10;99.90;;;;;;7281784;19;20189;-78
2023/04/22 09:33:05;;;;;;;20.10;12.83;;;16.20;99.90;;;;;;7303965;19;20191;-79
2023/04/22 09:35:32;;;;;;;17.77;12.13;;;16.30;99.90;;;;;;7287247;19;20315;-79
2023/04/22 09:38:01;;;;;;;18.20;12.57;;;16.20;99.90;;;;;;7288122;19;20209;-78
2023/04/22 09:40:27;;;;;;;17.97;13.27;;;16.10;99.90;;;;;;7287508;19;20209;-78
2023/04/22 09:42:55;;;;;;;18.63;12.60;;;16.10;99.90;;;;;;7286841;19;20517;-78
2023/04/22 09:45:29;;;;;;;18.93;13.13;;;16.10;99.90;;;;;;7287267;19;20192;-78
2023/04/22 09:47:56;;;;;;;17.77;12.73;;;16.10;99.90;;;;;;7286878;19;20551;-79
2023/04/22 09:50:27;;;;;;;21.63;13.90;;;16.10;99.90;;;;;;7285587;19;20295;-77
2023/04/22 09:52:55;;;;;;;18.90;14.30;;;16.30;99.90;;;;;;7286227;19;20188;-78
2023/04/22 09:55:22;;;;;;;19.87;13.90;;;16.30;99.90;;;;;;7286310;19;20535;-78
2023/04/22 09:57:52;;;;;;;20.83;14.40;;;16.30;99.90;;;;;;7286642;19;20251;-78
2023/04/22 10:00:18;;;;;;;26.27;15.67;;;16.30;99.90;;;;;;7286290;19;20191;-78
2023/04/22 10:02:44;;;;;;;21.47;14.80;;;16.30;99.90;;;;;;7285736;19;20671;-78
2023/04/22 10:05:11;;;;;;;22.97;15.30;;;16.30;99.90;;;;;;7287138;19;20199;-78
2023/04/22 10:07:38;;;;;;;22.53;15.13;;;16.40;99.90;;;;;;7302792;19;20181;-77
2023/04/22 10:10:07;;;;;;;28.10;16.60;;;16.40;99.90;;;;;;7308350;19;20196;-79
2023/04/22 10:12:35;;;;;;;23.77;16.93;;;16.30;99.90;;;;;;7286946;19;20321;-78
2023/04/22 10:15:01;;;;;;;23.43;16.90;;;16.30;99.90;;;;;;7285763;19;20614;-78
2023/04/22 10:17:32;;;;;;;24.97;16.90;;;16.20;99.90;;;;;;7284782;19;20202;-78
2023/04/22 10:20:03;;;;;;;24.83;17.13;;;16.10;99.90;;;;;;7286737;19;20200;-78
2023/04/22 10:22:33;;;;;;;23.93;16.37;;;16.10;99.90;;;;;;7284799;19;20197;-78
2023/04/22 10:24:59;;;;;;;25.73;17.17;;;16.20;99.90;;;;;;7284230;19;20549;-78
2023/04/22 10:27:25;;;;;;;28.80;17.83;;;16.30;99.90;;;;;;7287041;19;20199;-78
2023/04/22 10:29:51;;;;;;;23.00;17.23;;;16.30;99.90;;;;;;7285398;19;20547;-78
2023/04/22 10:32:16;;;;;;;28.87;18.23;;;16.30;99.90;;;;;;7286512;19;20193;-78
2023/04/22 10:34:46;;;;;;;24.83;17.20;;;16.40;99.90;;;;;;7285829;19;20194;-78
2023/04/22 10:37:13;;;;;;;23.53;16.30;;;16.40;99.90;;;;;;7285125;19;20281;-78
2023/04/22 10:39:41;;;;;;;26.13;17.93;;;16.30;99.90;;;;;;7285018;19;20588;-78
2023/04/22 10:42:09;;;;;;;27.57;18.27;;;16.30;99.90;;;;;;7300773;19;20200;-78
2023/04/22 10:44:48;;;;;;;27.20;17.67;;;16.10;99.90;;;;;;7308260;19;20180;-78
2023/04/22 10:47:33;;;;;;;25.73;18.40;;;16.20;99.90;;;;;;7183867;19;2004406;-78
2023/04/22 10:50:22;;;;;;;26.77;18.47;;;16.20;99.90;;;;;;7284545;19;20207;-78
2023/04/22 10:52:57;;;;;;;24.90;18.07;;;16.40;99.90;;;;;;7183696;19;2006527;-78
2023/04/22 10:55:24;;;;;;;24.10;17.70;;;16.50;99.90;;;;;;7285108;19;20191;-78
2023/04/22 10:57:51;;;;;;;26.40;16.57;;;16.50;99.90;;;;;;7286506;19;20184;-78
2023/04/22 11:00:27;;;;;;;25.67;17.07;;;16.50;99.90;;;;;;7286120;19;20213;-78
2023/04/22 11:03:15;;;;;;;28.87;19.97;;;16.60;99.90;;;;;;7284833;19;20263;-78
2023/04/22 11:05:41;;;;;;;27.47;18.87;;;16.70;99.90;;;;;;7264165;19;20187;-78
2023/04/22 11:08:12;;;;;;;25.80;18.10;;;16.80;99.90;;;;;;7297581;19;20189;-78
2023/04/22 11:10:40;;;;;;;25.13;17.90;;;16.80;99.90;;;;;;7288523;19;20177;-79
2023/04/22 11:13:12;;;;;;;26.57;18.60;;;16.80;99.90;;;;;;7311526;19;20201;-78
2023/04/22 11:15:40;;;;;;;25.73;17.47;;;16.90;99.90;;;;;;7264084;19;20194;-78
2023/04/22 11:18:12;;;;;;;22.83;16.93;;;16.90;99.90;;;;;;7307434;19;20879;-80
2023/04/22 11:20:38;;;;;;;22.03;16.00;;;16.80;99.90;;;;;;7264663;19;20202;-78
2023/04/22 11:23:04;;;;;;;21.47;16.17;;;16.80;99.90;;;;;;7307456;19;20189;-79
2023/04/22 11:25:30;;;;;;;25.23;16.00;;;16.80;99.90;;;;;;7285440;19;20252;-79
2023/04/22 11:27:56;;;;;;;26.00;16.90;;;16.70;99.90;;;;;;7284438;19;21999;-79
2023/04/22 11:30:25;;;;;;;22.53;16.30;;;16.60;99.90;;;;;;7284538;19;20188;-79
2023/04/22 11:32:52;;;;;;;23.43;17.07;;;16.60;99.90;;;;;;7285449;19;20194;-79
2023/04/22 11:35:19;;;;;;;23.73;16.27;;;16.60;99.90;;;;;;7282496;19;20212;-79
2023/04/22 11:38:07;;;;;;;23.27;15.90;;;16.70;99.90;;;;;;7285163;19;20204;-79
2023/04/22 11:40:41;;;;;;;25.23;16.03;;;16.70;99.90;;;;;;7285114;19;20353;-79
2023/04/22 11:43:08;;;;;;;24.83;15.93;;;16.70;99.90;;;;;;7280967;19;20187;-78
2023/04/22 11:45:36;;;;;;;24.33;18.27;;;16.60;99.90;;;;;;7307060;19;20188;-79
2023/04/22 11:48:05;;;;;;;30.00;20.13;;;16.20;99.90;;;;;;7285337;19;20187;-79
2023/04/22 11:50:34;;;;;;;31.67;22.07;;;16.00;99.90;;;;;;7284509;19;20191;-79
2023/04/22 11:53:03;;;;;;;31.57;22.40;;;15.80;99.90;;;;;;7283985;19;20262;-79
2023/04/22 11:55:32;;;;;;;33.20;22.63;;;15.80;99.90;;;;;;7283435;19;20184;-79
2023/04/22 11:58:08;;;;;;;30.80;21.93;;;15.80;99.90;;;;;;7283128;19;23108;-77
2023/04/22 12:00:40;;;;;;;32.27;22.30;;;15.80;99.90;;;;;;7284123;19;20198;-77
2023/04/22 12:03:11;;;;;;;33.90;23.90;;;15.90;99.90;;;;;;7284355;19;20185;-79
2023/04/22 12:05:39;;;;;;;35.23;23.80;;;15.90;99.90;;;;;;7278536;19;20199;-78
2023/04/22 12:08:08;;;;;;;31.30;22.00;;;15.90;99.90;;;;;;7305872;19;20195;-77
2023/04/22 12:10:49;;;;;;;31.57;22.03;;;15.90;99.90;;;;;;7282713;19;20606;-79
2023/04/22 12:13:23;;;;;;;34.83;23.77;;;15.70;99.90;;;;;;7182835;19;2005046;-78
2023/04/22 12:15:53;;;;;;;31.70;23.67;;;15.60;99.90;;;;;;7282982;19;20201;-77
2023/04/22 12:18:32;;;;;;;36.93;24.60;;;15.40;99.90;;;;;;7283620;19;20195;-77
2023/04/22 12:21:11;;;;;;;37.33;26.33;;;15.30;99.90;;;;;;7283429;19;20186;-77
2023/04/22 12:23:45;;;;;;;37.37;25.63;;;15.40;99.90;;;;;;7276249;19;20266;-76
2023/04/22 12:26:11;;;;;;;37.77;25.80;;;15.50;99.90;;;;;;7283788;19;20202;-77
2023/04/22 12:28:38;;;;;;;38.20;25.17;;;15.80;99.90;;;;;;7295578;19;20717;-78
2023/04/22 12:31:05;;;;;;;33.53;23.07;;;15.90;99.90;;;;;;7304916;19;20276;-77
2023/04/22 12:33:31;;;;;;;33.40;23.30;;;16.00;99.90;;;;;;7282978;19;20651;-77
2023/04/22 12:35:57;;;;;;;41.40;24.50;;;15.70;99.90;;;;;;7282483;19;21790;-77